Alden, Kansas
Current Conditions -  °F | °C
As of 7:52 AM on Monday 22 Dec 2014 (Local Time) from KHUT Reporting Station
Haze Haze  
Wind Chill: 41°   Ceiling: 200
Heat Index: 45°   Visibility: 2.5mi
Dew Point: 43°   Wind: 7mph
Humidity: 93%   Direction: 220°SW
Pressure: 29.56"   Gusts: NA
Location:  38.24°N, 98.31°W
Report Text: KHUT 221352Z 22006KT 2 1/2SM BR OVC002 07/06 A2956 RMK AO2 SLP006 T00720061
Loading
Personal Weather Stations






























Interactive Weather Map New forecast layout! Learn more

10-Day Weather Forecast

Advertisements
Track Severe Weather on mobile